< Cyclone 202008 2020 Season Cyclone 202011 >
Cyclone 202010 (Gretel)
General InformationTrack Information on Google MapsDetailed Wind Information || ResourceGoogle EarthGE AnimationAtom FeedGeoJSON
Year Month Day Hour Lat. Long. Pressure (hPa) Wind (kt) Class Image Chart
2020 3 10 00 -11.4 139.0 1009 20 2 Image --
2020 3 10 06 -11.9 139.8 1008 20 2 Image --
2020 3 10 12 -12.4 140.5 1008 20 2 Image --
2020 3 10 18 -13.0 141.4 1007 20 2 Image --
2020 3 11 00 -13.5 142.2 1007 20 2 Image --
2020 3 11 06 -13.7 143.1 1004 20 2 Image --
2020 3 11 12 -13.7 144.1 1006 20 2 Image --
2020 3 11 18 -13.9 144.8 1005 20 2 Image --
2020 3 12 00 -14.0 146.1 1002 20 2 Image --
2020 3 12 06 -14.2 146.8 1002 20 2 Image --
2020 3 12 12 -14.3 147.5 1002 20 2 Image --
2020 3 12 18 -14.6 148.4 999 20 2 Image --
2020 3 13 00 -14.9 149.4 998 30 2 Image --
2020 3 13 06 -15.5 150.5 997 30 2 Image --
2020 3 13 12 -15.9 151.5 995 25 2 Image --
2020 3 13 18 -16.2 153.1 992 25 2 Image --
2020 3 14 00 -16.6 154.4 993 30 2 Image --
2020 3 14 06 -17.1 155.5 992 30 2 Image --
2020 3 14 12 -17.6 157.5 995 35 3 Image --
2020 3 14 18 -18.4 159.4 990 40 3 Image --
2020 3 15 00 -19.9 161.0 988 45 3 Image --
2020 3 15 06 -21.5 163.3 985 50 4 Image --
2020 3 15 12 -23.0 165.4 984 50 4 Image --
2020 3 15 18 -24.8 167.7 982 50 4 Image --
2020 3 16 00 -26.6 169.6 982 50 4 Image --
2020 3 16 06 -28.0 171.6 982 0 0 Image --
< Cyclone 202008 2020 Season Cyclone 202011 >

Help